Time;durP1;ratioP1;P1;durP2;ratioP2;P2;SDS_P1;SDS_P2;PMS_P1;PMS_P2;Temp;Humidity;BMP_temperature;BMP_pressure;BME280_temperature;BME280_humidity;BME280_pressure;Samples;Min_cycle;Max_cycle;Signal;HPM_P1;HPM_P2
2021/05/24 00:02:16;;;;;;;3.03;1.98;;;;;;;25.39;40.63;95204.56;5296677;23;20044;-70
2021/05/24 00:04:42;;;;;;;2.90;1.98;;;;;;;25.34;40.64;95213.59;4915060;29;20044;-70
2021/05/24 00:07:07;;;;;;;3.20;2.10;;;;;;;25.43;40.82;95233.09;4918315;29;20046;-70
2021/05/24 00:09:33;;;;;;;2.83;1.90;;;;;;;25.43;40.73;95237.81;4934452;29;20016;-70
2021/05/24 00:11:59;;;;;;;2.85;2.00;;;;;;;25.42;40.87;95236.34;4916619;29;20514;-70
2021/05/24 00:14:26;;;;;;;2.88;1.92;;;;;;;25.42;40.57;95236.34;4916948;29;20111;-70
2021/05/24 00:16:51;;;;;;;2.97;2.00;;;;;;;25.39;40.54;95226.44;4933646;29;20456;-70
2021/05/24 00:19:17;;;;;;;2.70;2.10;;;;;;;25.39;41.46;95237.38;4933928;29;20028;-69
2021/05/24 00:21:42;;;;;;;2.85;1.92;;;;;;;25.36;40.80;95232.94;4916587;29;20036;-70
2021/05/24 00:24:08;;;;;;;3.30;2.00;;;;;;;25.34;40.83;95230.00;4933775;29;20032;-72
2021/05/24 00:26:34;;;;;;;2.63;1.85;;;;;;;25.32;40.63;95241.44;4933705;29;20454;-71
2021/05/24 00:28:59;;;;;;;2.67;2.03;;;;;;;25.34;40.71;95251.88;4916424;29;20115;-71
2021/05/24 00:31:24;;;;;;;2.83;1.77;;;;;;;25.34;41.29;95262.81;4933452;29;20023;-71
2021/05/24 00:33:50;;;;;;;2.63;1.80;;;;;;;25.34;40.75;95254.59;4933332;29;20031;-70
2021/05/24 00:36:18;;;;;;;3.05;2.03;;;;;;;25.31;41.20;95269.28;4933795;29;20046;-70
2021/05/24 00:38:44;;;;;;;3.00;1.80;;;;;;;25.31;41.11;95280.22;4933403;29;20685;-70
2021/05/24 00:41:09;;;;;;;2.95;1.90;;;;;;;25.30;41.49;95267.81;4916244;29;20095;-70
2021/05/24 00:43:35;;;;;;;2.63;1.80;;;;;;;25.31;41.35;95290.44;4916448;29;20118;-71
2021/05/24 00:46:00;;;;;;;2.78;2.00;;;;;;;25.18;41.38;95250.06;4932990;29;20046;-70
2021/05/24 00:48:26;;;;;;;2.55;1.88;;;;;;;25.27;40.93;95279.78;4900297;29;20522;-70
2021/05/24 00:50:51;;;;;;;2.92;2.10;;;;;;;25.29;41.59;95288.22;4933093;29;20031;-70
2021/05/24 00:53:16;;;;;;;2.58;2.17;;;;;;;25.28;41.08;95292.19;4933066;29;20487;-70
2021/05/24 00:55:42;;;;;;;2.90;1.80;;;;;;;25.26;41.47;95294.72;4933133;29;20032;-72
2021/05/24 00:58:08;;;;;;;3.05;1.88;;;;;;;25.28;41.70;95291.47;4932957;29;20082;-70
2021/05/24 01:00:41;;;;;;;2.58;1.90;;;;;;;25.25;41.10;95309.63;4899917;29;20463;-70
2021/05/24 01:03:07;;;;;;;2.70;2.05;;;;;;;25.26;41.48;95305.66;4932583;29;20083;-71
2021/05/24 01:05:33;;;;;;;2.53;1.70;;;;;;;25.24;41.57;95308.13;4932699;29;20035;-69
2021/05/24 01:07:58;;;;;;;2.83;2.08;;;;;;;25.24;41.15;95313.59;4932710;29;20035;-71
2021/05/24 01:10:24;;;;;;;3.08;1.85;;;;;;;25.24;41.15;95308.13;4932457;29;20059;-72
2021/05/24 01:12:49;;;;;;;2.38;1.63;;;;;;;25.24;41.26;95316.34;4932485;29;20039;-69
2021/05/24 01:15:15;;;;;;;2.45;1.70;;;;;;;25.25;41.12;95315.09;4915295;29;20027;-71
2021/05/24 01:17:40;;;;;;;2.83;1.65;;;;;;;25.21;41.68;95309.16;4915849;29;20071;-71
2021/05/24 01:20:06;;;;;;;2.83;2.10;;;;;;;25.20;41.28;95313.19;4932828;29;20027;-71
2021/05/24 01:22:34;;;;;;;3.03;2.20;;;;;;;25.22;41.05;95310.66;4932439;29;20111;-71
2021/05/24 01:25:00;;;;;;;2.08;1.70;;;;;;;25.20;41.62;95302.25;4932502;29;20039;-71
2021/05/24 01:27:25;;;;;;;2.85;2.00;;;;;;;25.21;41.23;95325.56;4932507;29;20020;-71
2021/05/24 01:29:51;;;;;;;3.28;1.90;;;;;;;25.20;41.63;95332.31;4932367;29;20027;-71
2021/05/24 01:32:16;;;;;;;2.97;1.58;;;;;;;25.22;41.37;95326.31;4932676;29;20419;-71
2021/05/24 01:34:42;;;;;;;2.60;1.80;;;;;;;25.21;41.70;95330.31;4914874;29;20071;-71
2021/05/24 01:37:07;;;;;;;3.25;1.90;;;;;;;25.18;41.63;95332.06;4932293;29;20020;-71
2021/05/24 01:39:33;;;;;;;2.95;1.83;;;;;;;25.20;41.80;95334.28;4932406;29;20521;-71
2021/05/24 01:41:58;;;;;;;2.90;1.70;;;;;;;25.20;41.67;95329.56;4915105;29;20558;-71
2021/05/24 01:44:32;;;;;;;3.40;1.80;;;;;;;25.17;41.07;95329.84;4914807;29;20031;-71
2021/05/24 01:46:57;;;;;;;2.35;1.70;;;;;;;25.16;41.05;95333.84;4932066;29;20555;-71
2021/05/24 01:49:23;;;;;;;2.58;2.00;;;;;;;25.16;41.16;95333.84;4931134;29;20111;-71
2021/05/24 01:51:48;;;;;;;2.60;1.70;;;;;;;25.14;41.81;95348.03;4931799;29;20035;-70
2021/05/24 01:54:14;;;;;;;3.13;1.90;;;;;;;25.13;41.23;95345.81;4932154;29;20410;-70
2021/05/24 01:56:41;;;;;;;2.88;1.98;;;;;;;25.14;41.32;95348.03;4914795;29;20043;-70
2021/05/24 01:59:07;;;;;;;3.22;1.90;;;;;;;25.13;41.87;95352.00;4914698;29;20102;-70
2021/05/24 02:01:32;;;;;;;3.45;2.20;;;;;;;25.15;42.07;95360.41;4931707;29;20032;-70
2021/05/24 02:03:57;;;;;;;2.50;1.80;;;;;;;25.13;41.81;95362.94;4931424;29;20056;-71
2021/05/24 02:06:23;;;;;;;3.00;1.75;;;;;;;25.11;41.97;95359.22;4931720;29;20059;-71
2021/05/24 02:08:48;;;;;;;3.10;1.70;;;;;;;25.10;41.58;95363.97;4931906;29;20042;-70
2021/05/24 02:11:14;;;;;;;2.50;1.75;;;;;;;25.09;41.91;95351.53;4931864;29;20039;-71
2021/05/24 02:13:45;;;;;;;2.22;1.70;;;;;;;25.08;42.18;95355.53;4931581;29;20598;-70
2021/05/24 02:16:11;;;;;;;2.40;1.73;;;;;;;25.07;41.84;95362.25;4931660;29;20026;-70
2021/05/24 02:18:36;;;;;;;2.20;1.77;;;;;;;25.08;41.35;95371.94;4931613;29;20359;-71
2021/05/24 02:21:03;;;;;;;2.28;1.75;;;;;;;25.07;42.06;95358.78;4931109;29;20016;-70
2021/05/24 02:23:29;;;;;;;2.65;1.83;;;;;;;25.06;41.89;95368.97;4931387;29;20503;-71
2021/05/24 02:25:54;;;;;;;3.35;1.83;;;;;;;25.05;42.03;95367.50;4930277;29;20047;-70
2021/05/24 02:28:20;;;;;;;2.92;1.67;;;;;;;24.95;41.87;95352.66;4931213;29;20036;-70
2021/05/24 02:30:45;;;;;;;2.10;1.60;;;;;;;25.04;41.98;95376.19;4914361;29;20031;-71
2021/05/24 02:33:11;;;;;;;2.20;1.90;;;;;;;25.04;42.04;95382.41;4930774;29;20091;-71
2021/05/24 02:35:36;;;;;;;2.92;1.90;;;;;;;25.05;41.38;95394.81;4931057;29;20027;-70
2021/05/24 02:38:02;;;;;;;2.50;1.65;;;;;;;25.03;41.87;95396.56;4909808;29;20036;-70
2021/05/24 02:40:28;;;;;;;2.42;1.77;;;;;;;25.04;41.31;95403.53;4895125;29;20448;-71
2021/05/24 02:42:54;;;;;;;2.40;1.70;;;;;;;25.03;41.75;95402.78;4895100;29;20036;-71
2021/05/24 02:45:19;;;;;;;3.00;1.80;;;;;;;25.01;41.81;95399.81;4911855;29;20032;-69
2021/05/24 02:47:45;;;;;;;2.40;1.60;;;;;;;25.05;41.74;95415.91;4912133;29;20024;-69
2021/05/24 02:50:12;;;;;;;2.55;1.80;;;;;;;25.08;42.26;95410.19;4912197;29;20060;-71
2021/05/24 02:52:38;;;;;;;3.05;2.10;;;;;;;25.09;42.18;95405.47;4912006;29;20040;-71
2021/05/24 02:55:04;;;;;;;2.88;1.65;;;;;;;25.06;42.08;95409.94;4910635;29;20032;-71
2021/05/24 02:57:29;;;;;;;3.25;1.67;;;;;;;25.07;41.76;95424.38;4911967;29;20412;-71
2021/05/24 02:59:55;;;;;;;2.13;1.60;;;;;;;25.06;41.48;95428.34;4894857;29;20054;-71
2021/05/24 03:02:29;;;;;;;2.67;1.77;;;;;;;24.98;42.25;95419.22;4911675;29;20028;-71
2021/05/24 03:04:54;;;;;;;2.85;1.70;;;;;;;25.03;42.18;95424.63;4911754;29;20043;-71
2021/05/24 03:07:20;;;;;;;2.47;1.70;;;;;;;25.02;41.75;95439.56;4894612;29;20032;-71
2021/05/24 03:09:45;;;;;;;2.45;1.95;;;;;;;25.03;42.45;95430.09;4911827;29;20040;-73
2021/05/24 03:12:11;;;;;;;2.47;1.80;;;;;;;25.06;41.68;95429.06;4911950;29;20083;-72
2021/05/24 03:14:36;;;;;;;2.78;1.70;;;;;;;25.07;41.45;95436.03;4912001;29;20031;-71
2021/05/24 03:17:02;;;;;;;1.67;1.40;;;;;;;25.09;42.31;95439.00;4911641;29;20499;-72
2021/05/24 03:19:27;;;;;;;2.35;1.73;;;;;;;25.09;42.40;95428.06;4911544;29;20514;-72
2021/05/24 03:21:53;;;;;;;2.88;1.70;;;;;;;24.99;42.12;95424.19;4911548;29;20032;-71
2021/05/24 03:24:18;;;;;;;2.10;1.70;;;;;;;25.10;41.68;95456.16;4911726;29;20420;-70
2021/05/24 03:26:44;;;;;;;1.88;1.60;;;;;;;25.11;42.32;95452.91;4912008;29;20488;-70
2021/05/24 03:29:09;;;;;;;3.08;1.92;;;;;;;25.11;41.85;95446.69;4911474;29;20397;-71
2021/05/24 03:31:34;;;;;;;2.15;1.52;;;;;;;24.99;42.07;95450.75;4911296;29;20028;-71
2021/05/24 03:34:00;;;;;;;2.70;1.90;;;;;;;25.08;41.91;95464.84;4908526;29;20035;-71
2021/05/24 03:36:25;;;;;;;2.97;1.80;;;;;;;25.08;42.13;95473.06;4930602;29;20075;-71
2021/05/24 03:38:51;;;;;;;2.30;1.80;;;;;;;25.06;41.83;95461.16;4934322;29;20024;-71
2021/05/24 03:41:17;;;;;;;2.22;1.63;;;;;;;25.08;42.53;95467.59;4934594;29;20023;-71
2021/05/24 03:43:44;;;;;;;3.05;1.55;;;;;;;25.06;42.51;95472.81;4933992;29;20083;-72
2021/05/24 03:46:10;;;;;;;2.20;1.60;;;;;;;25.08;42.58;95485.97;4934366;29;20059;-72
2021/05/24 03:48:38;;;;;;;2.38;1.75;;;;;;;25.09;42.50;95493.66;4934449;29;20131;-71
2021/05/24 03:51:05;;;;;;;2.38;1.60;;;;;;;25.09;42.40;95477.25;4917433;29;20562;-71
2021/05/24 03:53:30;;;;;;;2.05;1.80;;;;;;;25.09;42.68;95477.25;4934068;29;20036;-71
2021/05/24 03:55:56;;;;;;;2.28;1.60;;;;;;;25.10;42.04;95489.69;4934274;29;20035;-71
2021/05/24 03:58:21;;;;;;;2.10;1.60;;;;;;;25.09;42.57;95488.19;4933900;29;20034;-70
2021/05/24 04:00:47;;;;;;;2.08;1.75;;;;;;;25.14;41.87;95489.41;4917412;29;20027;-70
2021/05/24 04:03:12;;;;;;;3.28;1.80;;;;;;;25.15;42.41;95491.63;4933423;29;20055;-71
2021/05/24 04:05:39;;;;;;;2.10;1.67;;;;;;;25.15;41.86;95508.00;4916557;29;20035;-71
2021/05/24 04:08:06;;;;;;;2.40;1.70;;;;;;;25.16;42.26;95514.97;4934007;29;20043;-72
2021/05/24 04:10:36;;;;;;;1.83;1.40;;;;;;;25.09;41.78;95501.84;4916759;29;20042;-71
2021/05/24 04:13:01;;;;;;;2.13;1.50;;;;;;;25.19;42.00;95513.97;4933499;29;20035;-71
2021/05/24 04:15:27;;;;;;;1.83;1.30;;;;;;;25.21;42.28;95527.84;4933521;29;20427;-73
2021/05/24 04:17:56;;;;;;;2.20;1.70;;;;;;;25.11;42.15;95517.75;4933402;29;20028;-72
2021/05/24 04:20:23;;;;;;;2.63;1.88;;;;;;;25.24;42.51;95537.78;4916887;29;20031;-72
2021/05/24 04:22:48;;;;;;;2.88;1.80;;;;;;;25.26;42.56;95546.22;4933870;29;20036;-70
2021/05/24 04:25:14;;;;;;;1.98;1.58;;;;;;;25.21;42.87;95522.38;4918358;29;20042;-71
2021/05/24 04:27:39;;;;;;;3.92;1.70;;;;;;;25.29;43.01;95538.97;4950895;29;20047;-70
2021/05/24 04:30:06;;;;;;;3.30;1.83;;;;;;;25.30;42.29;95545.94;4936949;29;20030;-70
2021/05/24 04:32:31;;;;;;;2.88;1.77;;;;;;;25.32;42.82;95550.38;4947655;29;20105;-72
2021/05/24 04:34:57;;;;;;;2.50;1.60;;;;;;;25.36;42.42;95561.03;4936074;29;20032;-74
2021/05/24 04:37:22;;;;;;;2.70;1.90;;;;;;;25.41;42.12;95552.81;4906904;29;20772;-72
2021/05/24 04:39:48;;;;;;;2.00;1.33;;;;;;;25.46;41.97;95564.94;4933442;29;20055;-73
2021/05/24 04:42:13;;;;;;;1.85;1.30;;;;;;;25.44;41.47;95546.31;4911691;29;20023;-74
2021/05/24 04:44:39;;;;;;;3.60;1.60;;;;;;;25.60;41.85;95563.84;4921567;29;20044;-72
2021/05/24 04:47:05;;;;;;;4.50;1.63;;;;;;;25.70;41.44;95567.75;4934724;29;20035;-72
2021/05/24 04:49:34;;;;;;;2.97;1.48;;;;;;;25.79;40.83;95568.91;4927109;29;20495;-73
2021/05/24 04:52:00;;;;;;;3.28;1.40;;;;;;;25.89;41.04;95569.31;4946114;29;20050;-72
2021/05/24 04:54:25;;;;;;;2.88;1.30;;;;;;;25.98;40.43;95563.50;4897388;29;20091;-73
2021/05/24 04:56:51;;;;;;;3.08;1.30;;;;;;;26.09;40.88;95577.81;4942527;29;20114;-73
2021/05/24 04:59:16;;;;;;;2.17;1.23;;;;;;;26.19;41.29;95576.22;4942481;29;20031;-70
2021/05/24 05:01:42;;;;;;;2.50;1.25;;;;;;;26.30;40.82;95581.59;4936924;29;20551;-72
2021/05/24 05:04:07;;;;;;;2.58;1.33;;;;;;;26.40;40.21;95580.00;4944234;29;20048;-71
2021/05/24 05:06:33;;;;;;;4.05;1.30;;;;;;;26.50;39.59;95578.38;4933943;29;20035;-70
2021/05/24 05:08:58;;;;;;;2.58;1.38;;;;;;;26.61;39.54;95589.22;4944003;29;20479;-70
2021/05/24 05:11:24;;;;;;;3.75;1.55;;;;;;;26.70;39.40;95592.31;4932760;29;20111;-70
2021/05/24 05:13:49;;;;;;;2.90;1.60;;;;;;;26.77;38.91;95603.44;4944520;29;20038;-71
2021/05/24 05:16:15;;;;;;;1.77;0.98;;;;;;;26.71;38.68;95604.78;4914197;29;20028;-70
2021/05/24 05:18:40;;;;;;;3.72;1.00;;;;;;;26.58;38.92;95584.75;4916189;29;20405;-71
2021/05/24 05:21:06;;;;;;;3.35;1.17;;;;;;;26.59;38.96;95602.66;4906354;29;20036;-70
2021/05/24 05:23:32;;;;;;;4.20;1.20;;;;;;;26.69;39.43;95622.97;4914469;29;20427;-71
2021/05/24 05:25:57;;;;;;;3.65;1.13;;;;;;;26.74;39.16;95622.16;4909131;29;20032;-71
2021/05/24 05:28:23;;;;;;;2.95;0.98;;;;;;;26.73;39.28;95617.97;4934478;29;20019;-71
2021/05/24 05:30:49;;;;;;;3.05;1.38;;;;;;;26.79;40.28;95622.84;4930092;29;20091;-71
2021/05/24 05:33:15;;;;;;;4.28;1.23;;;;;;;26.83;39.28;95617.81;4931680;29;20554;-71
2021/05/24 05:35:45;;;;;;;3.58;1.10;;;;;;;26.95;40.72;95624.66;4930086;29;20028;-72
2021/05/24 05:38:10;;;;;;;4.43;1.42;;;;;;;26.95;39.77;95634.88;4931719;29;20031;-72
2021/05/24 05:40:36;;;;;;;3.50;1.35;;;;;;;26.87;41.40;95634.69;4927070;29;20423;-72
2021/05/24 05:43:01;;;;;;;4.30;1.10;;;;;;;26.88;41.85;95630.69;4931802;29;20487;-72
2021/05/24 05:45:27;;;;;;;2.22;0.90;;;;;;;26.81;40.97;95631.28;4928553;29;20043;-73
2021/05/24 05:47:52;;;;;;;2.97;0.90;;;;;;;26.80;40.43;95635.28;4946369;29;20020;-72
2021/05/24 05:50:17;;;;;;;4.00;1.20;;;;;;;26.72;40.82;95633.66;4935156;29;20346;-73
2021/05/24 05:52:43;;;;;;;1.98;0.90;;;;;;;26.80;40.34;95629.81;4941183;29;20027;-73
2021/05/24 05:55:09;;;;;;;4.50;1.10;;;;;;;26.80;40.62;95646.25;4932556;29;20038;-71
2021/05/24 05:57:34;;;;;;;2.67;0.85;;;;;;;26.84;40.17;95646.69;4938812;29;20031;-72
2021/05/24 06:00:00;;;;;;;2.47;1.10;;;;;;;26.90;39.83;95643.91;4934071;29;20088;-72
2021/05/24 06:02:25;;;;;;;4.72;1.25;;;;;;;26.88;40.29;95655.38;4935574;29;20801;-72
2021/05/24 06:04:51;;;;;;;2.85;1.20;;;;;;;27.05;40.11;95655.19;4938088;29;20036;-67
2021/05/24 06:07:17;;;;;;;3.22;1.10;;;;;;;27.08;39.75;95649.41;4936098;29;20051;-68
2021/05/24 06:09:43;;;;;;;2.95;1.10;;;;;;;27.13;39.49;95651.34;4926223;29;20047;-71
2021/05/24 06:12:08;;;;;;;2.47;0.85;;;;;;;27.14;39.54;95652.81;4928472;29;20031;-71
2021/05/24 06:14:34;;;;;;;4.78;1.05;;;;;;;27.19;39.67;95632.81;4927550;29;20035;-71
2021/05/24 06:16:59;;;;;;;5.47;1.17;;;;;;;27.13;40.24;95640.38;4926225;29;20039;-71
2021/05/24 06:19:25;;;;;;;4.40;1.20;;;;;;;27.11;40.73;95648.38;4927234;29;20440;-71
2021/05/24 06:21:50;;;;;;;4.38;1.25;;;;;;;27.19;40.66;95649.28;4923610;29;20043;-70
2021/05/24 06:24:16;;;;;;;4.22;1.15;;;;;;;27.25;40.37;95658.19;4925860;29;20055;-71
2021/05/24 06:26:41;;;;;;;5.75;1.10;;;;;;;27.25;39.76;95647.22;4930003;29;20082;-71
2021/05/24 06:29:06;;;;;;;3.90;1.02;;;;;;;27.24;39.79;95645.72;4928572;29;20484;-71
2021/05/24 06:31:32;;;;;;;5.45;1.15;;;;;;;27.24;39.82;95629.25;4926317;29;20036;-71
2021/05/24 06:33:57;;;;;;;4.85;1.10;;;;;;;27.27;39.71;95633.69;4928788;29;20036;-71
2021/05/24 06:36:23;;;;;;;5.00;1.23;;;;;;;27.34;40.28;95649.56;4926230;29;20035;-71
2021/05/24 06:38:48;;;;;;;3.15;1.30;;;;;;;27.36;40.13;95647.03;4929579;29;20026;-70
2021/05/24 06:41:14;;;;;;;2.95;1.15;;;;;;;27.34;40.49;95633.13;4922240;29;20039;-71
2021/05/24 06:43:39;;;;;;;2.72;1.30;;;;;;;27.45;40.95;95639.16;4927106;29;20047;-70
2021/05/24 06:46:05;;;;;;;4.50;1.30;;;;;;;27.52;40.35;95643.31;4925035;29;20032;-72
2021/05/24 06:48:30;;;;;;;5.60;1.10;;;;;;;27.53;40.25;95634.56;4930840;29;20031;-71
2021/05/24 06:50:56;;;;;;;4.05;1.30;;;;;;;27.54;39.85;95636.06;4923834;29;20031;-71
2021/05/24 06:53:21;;;;;;;4.70;1.17;;;;;;;27.51;39.62;95636.38;4929903;29;20483;-73
2021/05/24 06:55:47;;;;;;;5.20;1.20;;;;;;;27.48;39.68;95612.69;4924430;29;20035;-74
2021/05/24 06:58:12;;;;;;;3.88;0.90;;;;;;;27.59;39.29;95627.00;4911823;29;20551;-72
2021/05/24 07:00:38;;;;;;;3.78;1.58;;;;;;;27.58;39.10;95635.75;4924893;29;20031;-71
2021/05/24 07:03:03;;;;;;;3.50;1.38;;;;;;;27.53;39.13;95633.84;4928008;29;20055;-72
2021/05/24 07:05:29;;;;;;;2.95;0.93;;;;;;;27.52;39.17;95615.88;4926833;29;20040;-71
2021/05/24 07:07:54;;;;;;;4.60;1.25;;;;;;;27.50;38.86;95623.91;4910920;29;20719;-71
2021/05/24 07:10:20;;;;;;;3.72;1.20;;;;;;;27.64;38.81;95622.69;4910198;29;20027;-71
2021/05/24 07:12:45;;;;;;;4.22;1.35;;;;;;;27.64;38.62;95623.44;4927750;29;20030;-71
2021/05/24 07:15:11;;;;;;;4.25;1.38;;;;;;;27.62;38.83;95614.25;4926427;29;20027;-71
2021/05/24 07:17:36;;;;;;;5.45;1.30;;;;;;;27.72;38.60;95624.31;4928044;29;20102;-70
2021/05/24 07:20:03;;;;;;;5.30;1.20;;;;;;;27.77;38.49;95626.22;4924933;29;20028;-72
2021/05/24 07:22:28;;;;;;;5.25;1.60;;;;;;;27.77;38.39;95616.00;4928631;29;20765;-72
2021/05/24 07:24:54;;;;;;;4.43;1.30;;;;;;;27.85;38.17;95627.84;4923533;29;20047;-71
2021/05/24 07:27:20;;;;;;;2.92;1.20;;;;;;;27.91;37.96;95620.25;4930238;29;20028;-71
2021/05/24 07:29:46;;;;;;;3.20;1.10;;;;;;;27.87;38.11;95636.28;4924790;29;20040;-72
2021/05/24 07:32:11;;;;;;;2.67;1.10;;;;;;;27.92;37.86;95664.91;4927929;29;20040;-71
2021/05/24 07:34:37;;;;;;;4.40;1.15;;;;;;;27.85;37.92;95627.84;4928246;29;20020;-71
2021/05/24 07:37:03;;;;;;;4.75;1.30;;;;;;;27.85;37.67;95627.84;4928119;29;20098;-71
2021/05/24 07:39:29;;;;;;;3.67;1.27;;;;;;;27.98;38.14;95625.13;4925793;29;20031;-70
2021/05/24 07:41:59;;;;;;;4.70;1.30;;;;;;;28.04;38.04;95634.03;4924571;29;20067;-70
2021/05/24 07:44:25;;;;;;;4.47;1.17;;;;;;;28.00;37.61;95644.56;4927917;29;20122;-71
2021/05/24 07:46:50;;;;;;;4.53;1.65;;;;;;;28.06;37.69;95636.97;4932447;29;20055;-70
2021/05/24 07:49:18;;;;;;;3.60;1.40;;;;;;;28.11;37.65;95633.41;4933947;29;20107;-70
2021/05/24 07:51:43;;;;;;;3.78;1.52;;;;;;;28.16;37.51;95629.84;4929520;29;20063;-70
2021/05/24 07:54:09;;;;;;;6.55;1.58;;;;;;;28.22;37.48;95635.97;4927823;29;20035;-71
2021/05/24 07:56:34;;;;;;;4.43;1.50;;;;;;;28.27;37.50;95635.13;4928723;29;20039;-72
2021/05/24 07:59:00;;;;;;;5.88;1.42;;;;;;;28.14;37.41;95626.88;4911073;29;20051;-73
2021/05/24 08:01:25;;;;;;;5.90;1.58;;;;;;;28.27;37.29;95627.63;4928978;29;20078;-70
2021/05/24 08:03:50;;;;;;;4.10;1.40;;;;;;;28.33;36.88;95633.03;4926783;29;20099;-72
2021/05/24 08:06:16;;;;;;;3.80;1.52;;;;;;;28.35;36.79;95631.22;4923548;29;20032;-73
2021/05/24 08:08:42;;;;;;;3.70;1.30;;;;;;;28.30;36.83;95628.59;4928838;29;20038;-73
2021/05/24 08:11:08;;;;;;;4.80;1.58;;;;;;;28.34;36.60;95629.75;4924633;29;20053;-74
2021/05/24 08:13:33;;;;;;;5.25;1.70;;;;;;;28.37;36.70;95633.44;4930052;29;20558;-75
2021/05/24 08:15:59;;;;;;;5.15;1.88;;;;;;;28.39;36.22;95630.91;4923335;29;20023;-69
2021/05/24 08:18:24;;;;;;;4.05;1.80;;;;;;;28.37;36.43;95633.44;4912394;29;20534;-71
2021/05/24 08:20:50;;;;;;;5.47;1.60;;;;;;;28.38;36.58;95635.66;4924679;29;20035;-73
2021/05/24 08:23:16;;;;;;;6.97;1.90;;;;;;;28.49;36.15;95635.47;4931102;29;20028;-70
2021/05/24 08:25:41;;;;;;;4.88;1.98;;;;;;;28.48;36.82;95633.25;4927211;29;20031;-72
2021/05/24 08:28:07;;;;;;;5.40;1.85;;;;;;;28.48;37.46;95633.25;4932573;29;20027;-70
2021/05/24 08:30:32;;;;;;;4.07;1.88;;;;;;;28.54;37.04;95625.63;4925665;29;20042;-71
2021/05/24 08:32:58;;;;;;;3.30;1.52;;;;;;;28.56;36.77;95620.34;4932743;29;20515;-70
2021/05/24 08:35:24;;;;;;;5.05;1.65;;;;;;;28.64;37.59;95607.44;4926889;29;20023;-70
2021/05/24 08:37:49;;;;;;;4.38;1.30;;;;;;;28.65;36.79;95614.41;4911139;29;20411;-71
2021/05/24 08:40:15;;;;;;;4.00;1.85;;;;;;;28.70;36.72;95616.34;4925364;29;20532;-72
2021/05/24 08:42:43;;;;;;;5.38;2.22;;;;;;;28.79;37.96;95606.41;4944640;29;20031;-70
2021/05/24 08:45:09;;;;;;;6.53;1.60;;;;;;;28.75;36.91;95597.72;4952181;29;20501;-71
2021/05/24 08:47:35;;;;;;;6.32;2.15;;;;;;;28.75;36.66;95592.22;4952285;29;20102;-70
2021/05/24 08:50:00;;;;;;;3.28;1.27;;;;;;;28.68;36.59;95570.13;4934138;29;20042;-71
2021/05/24 08:52:29;;;;;;;4.35;1.40;;;;;;;28.81;36.32;95583.88;4931277;29;20028;-72
2021/05/24 08:54:55;;;;;;;5.40;1.60;;;;;;;28.83;36.45;95593.09;4937902;29;20055;-71
2021/05/24 08:57:20;;;;;;;4.18;1.45;;;;;;;28.85;36.67;95579.53;4935276;29;20055;-70
2021/05/24 08:59:46;;;;;;;4.50;1.70;;;;;;;28.89;36.33;95585.44;4918910;29;20561;-70
2021/05/24 09:02:12;;;;;;;4.72;1.55;;;;;;;28.86;36.03;95575.53;4951941;29;20027;-71
2021/05/24 09:04:45;;;;;;;3.13;1.30;;;;;;;28.91;37.00;95582.91;4951846;29;20594;-70
2021/05/24 09:07:11;;;;;;;5.57;1.75;;;;;;;28.92;36.62;95573.38;4934745;29;20039;-71
2021/05/24 09:09:37;;;;;;;4.90;1.30;;;;;;;29.00;37.14;95571.44;4934363;29;20034;-70
2021/05/24 09:12:19;;;;;;;3.63;1.60;;;;;;;28.98;36.43;95554.72;4951784;29;20067;-71
2021/05/24 09:14:54;;;;;;;6.32;1.33;;;;;;;29.03;35.79;95556.63;4940576;29;20039;-70
2021/05/24 09:17:19;;;;;;;3.42;1.38;;;;;;;28.92;36.68;95540.38;4932857;29;20081;-70
2021/05/24 09:19:45;;;;;;;2.72;1.23;;;;;;;28.93;35.86;95530.13;4938569;29;20032;-69
2021/05/24 09:22:10;;;;;;;4.20;1.33;;;;;;;29.09;35.79;95554.50;4930703;29;20020;-72
2021/05/24 09:24:37;;;;;;;4.20;1.50;;;;;;;29.15;35.70;95546.88;4927959;29;20734;-70
2021/05/24 09:27:08;;;;;;;2.65;1.25;;;;;;;29.09;36.74;95543.50;4909145;29;20054;-70
2021/05/24 09:29:41;;;;;;;3.58;1.35;;;;;;;29.15;35.85;95541.38;4911828;29;20024;-73
2021/05/24 09:32:20;;;;;;;3.70;1.40;;;;;;;29.15;35.66;95554.34;4922932;29;20147;-70
2021/05/24 09:34:47;;;;;;;4.47;1.23;;;;;;;29.14;35.32;95550.88;4928870;29;20028;-71
2021/05/24 09:37:12;;;;;;;6.05;1.58;;;;;;;29.11;36.14;95551.94;4923075;29;20448;-70
2021/05/24 09:39:38;;;;;;;4.07;1.27;;;;;;;29.12;35.18;95547.94;4911506;29;20034;-69
2021/05/24 09:42:06;;;;;;;3.03;1.27;;;;;;;29.17;35.45;95544.31;4889522;29;20032;-71
2021/05/24 09:44:32;;;;;;;4.30;1.30;;;;;;;29.15;35.46;95535.84;4928831;29;20035;-71
2021/05/24 09:46:58;;;;;;;2.83;1.40;;;;;;;29.20;36.23;95543.25;4920794;29;20028;-70
2021/05/24 09:49:24;;;;;;;3.65;1.40;;;;;;;29.09;35.41;95532.50;4929374;29;20083;-70
2021/05/24 09:51:51;;;;;;;4.72;1.60;;;;;;;29.15;34.93;95541.38;4907098;29;20043;-70
2021/05/24 09:54:16;;;;;;;3.90;1.67;;;;;;;29.13;35.12;95537.66;4922873;29;20569;-68
2021/05/24 09:56:45;;;;;;;4.20;1.50;;;;;;;29.17;35.70;95544.31;4928108;29;20123;-70
2021/05/24 09:59:18;;;;;;;3.67;1.33;;;;;;;29.14;34.98;95531.63;4926772;29;20036;-71
2021/05/24 10:01:49;;;;;;;2.55;1.40;;;;;;;29.22;34.93;95535.94;4929433;29;20023;-70
2021/05/24 10:04:16;;;;;;;3.92;1.27;;;;;;;29.25;35.09;95534.91;4942760;29;20056;-70
2021/05/24 10:06:42;;;;;;;5.80;1.45;;;;;;;29.28;35.28;95527.56;4926621;29;20063;-69
2021/05/24 10:09:08;;;;;;;4.88;1.33;;;;;;;29.37;35.06;95524.34;4940594;29;20215;-70
2021/05/24 10:11:35;;;;;;;6.15;1.55;;;;;;;29.40;35.21;95520.53;4937210;29;20431;-71
2021/05/24 10:14:01;;;;;;;3.15;1.30;;;;;;;29.39;34.77;95524.56;4931850;29;20035;-70
2021/05/24 10:16:31;;;;;;;4.55;1.42;;;;;;;29.38;34.54;95525.84;4898245;29;20024;-71
2021/05/24 10:18:57;;;;;;;6.28;1.55;;;;;;;29.42;34.40;95520.75;4931517;29;20118;-70
2021/05/24 10:21:22;;;;;;;6.38;1.50;;;;;;;29.40;35.13;95520.53;4929753;29;20492;-70
2021/05/24 10:23:47;;;;;;;4.68;1.52;;;;;;;29.36;34.89;95522.88;4930325;29;20036;-70
2021/05/24 10:26:15;;;;;;;6.35;1.88;;;;;;;29.42;34.97;95510.47;4931762;29;20467;-71
2021/05/24 10:28:42;;;;;;;4.03;1.30;;;;;;;29.48;34.78;95518.59;4931161;29;20039;-71
2021/05/24 10:31:24;;;;;;;4.97;1.85;;;;;;;29.39;35.37;95505.31;4898833;29;20118;-70
2021/05/24 10:33:50;;;;;;;6.65;1.63;;;;;;;29.51;35.02;95510.00;4915302;29;20046;-70
2021/05/24 10:36:31;;;;;;;7.00;1.85;;;;;;;29.53;35.49;95507.44;4905302;29;20024;-70
2021/05/24 10:39:22;;;;;;;5.55;1.70;;;;;;;29.57;35.41;95515.38;4911321;29;20122;-70
2021/05/24 10:41:55;;;;;;;4.55;1.60;;;;;;;29.55;35.34;95517.91;4926412;29;20040;-69
2021/05/24 10:44:37;;;;;;;5.22;1.60;;;;;;;29.59;35.04;95507.28;4913033;29;20027;-71
2021/05/24 10:47:23;;;;;;;6.20;1.75;;;;;;;29.59;35.09;95507.28;4927060;29;20083;-70
2021/05/24 10:50:04;;;;;;;4.50;1.48;;;;;;;29.58;35.44;95506.56;4909225;29;20117;-71
2021/05/24 10:53:13;;;;;;;5.15;1.80;;;;;;;29.59;34.81;95499.03;4933606;29;20396;-69
2021/05/24 10:55:41;;;;;;;7.13;1.75;;;;;;;29.62;35.05;95495.22;4929020;29;20817;-70
2021/05/24 10:58:09;;;;;;;5.10;1.67;;;;;;;29.65;35.06;95494.84;4939286;29;20031;-71
2021/05/24 11:01:00;;;;;;;5.03;1.50;;;;;;;29.61;33.40;95488.22;4932336;29;20043;-71
2021/05/24 11:03:26;;;;;;;5.38;1.45;;;;;;;29.67;34.28;95491.56;4910923;29;20059;-71
2021/05/24 11:06:19;;;;;;;4.18;1.48;;;;;;;29.67;33.64;95487.53;4928590;29;20070;-70
2021/05/24 11:08:49;;;;;;;5.32;1.55;;;;;;;29.66;33.80;95484.59;4929076;29;20047;-70
2021/05/24 11:11:25;;;;;;;6.13;1.85;;;;;;;29.61;32.78;95488.22;4923231;29;20043;-70
2021/05/24 11:13:52;;;;;;;5.75;1.73;;;;;;;29.65;32.68;95488.63;4931805;29;20066;-73
2021/05/24 11:16:18;;;;;;;6.38;1.83;;;;;;;29.66;34.17;95501.13;4927234;29;20028;-70
2021/05/24 11:18:45;;;;;;;7.28;1.92;;;;;;;29.66;34.32;95490.84;4930633;29;20041;-71
2021/05/24 11:21:13;;;;;;;5.60;1.58;;;;;;;29.63;34.76;95488.44;4925734;29;20028;-71
2021/05/24 11:26:15;;;;;;;5.88;1.70;;;;;;;29.43;35.01;95483.66;4911076;29;20836;-69
2021/05/24 11:29:09;;;;;;;4.65;1.70;;;;;;;29.49;34.53;95481.50;4929904;29;20047;-74
2021/05/24 11:31:35;;;;;;;4.88;1.63;;;;;;;29.49;34.13;95482.28;4914402;29;20131;-74
2021/05/24 11:34:01;;;;;;;4.43;1.90;;;;;;;29.55;33.33;95473.84;4922986;29;20036;-75
2021/05/24 11:36:35;;;;;;;7.32;1.58;;;;;;;29.55;33.91;95471.09;4920424;29;20016;-78